createdAt,value
2022-09-14T00:01:25.229Z,99.90
2022-09-14T00:03:55.245Z,99.90
2022-09-14T00:06:22.901Z,99.90
2022-09-14T00:08:52.483Z,99.90
2022-09-14T00:11:19.928Z,99.90
2022-09-14T00:13:47.506Z,99.90
2022-09-14T00:16:17.811Z,99.90
2022-09-14T00:18:45.265Z,99.90
2022-09-14T00:21:13.042Z,99.90
2022-09-14T00:23:42.198Z,99.90
2022-09-14T00:26:16.124Z,99.90
2022-09-14T00:28:48.860Z,99.90
2022-09-14T00:31:17.027Z,99.90
2022-09-14T00:33:45.081Z,99.90
2022-09-14T00:36:16.073Z,99.90
2022-09-14T00:38:43.044Z,99.90
2022-09-14T00:41:13.698Z,99.90
2022-09-14T00:43:57.096Z,99.90
2022-09-14T00:46:25.591Z,99.90
2022-09-14T00:48:52.864Z,99.90
2022-09-14T00:51:21.682Z,99.90
2022-09-14T00:53:48.851Z,99.90
2022-09-14T00:56:15.994Z,99.90
2022-09-14T00:58:45.408Z,99.90
2022-09-14T01:01:12.491Z,99.90
2022-09-14T01:03:39.503Z,99.90
2022-09-14T01:06:35.463Z,99.90
2022-09-14T01:09:20.715Z,99.90
2022-09-14T01:12:09.535Z,99.90
2022-09-14T01:14:48.388Z,99.90
2022-09-14T01:17:17.704Z,99.90
2022-09-14T01:20:08.978Z,99.90
2022-09-14T01:22:51.213Z,99.90
2022-09-14T01:25:45.824Z,99.90
2022-09-14T01:28:38.515Z,99.90
2022-09-14T01:31:13.642Z,99.90
2022-09-14T01:33:53.838Z,99.90
2022-09-14T01:36:21.925Z,99.90
2022-09-14T01:38:51.931Z,99.90
2022-09-14T01:41:23.140Z,99.90
2022-09-14T01:43:54.224Z,99.90
2022-09-14T01:46:26.008Z,99.90
2022-09-14T01:49:15.984Z,99.90
2022-09-14T01:52:11.319Z,99.90
2022-09-14T01:55:01.008Z,99.90
2022-09-14T01:57:42.590Z,99.90
2022-09-14T02:00:12.645Z,99.90
2022-09-14T02:03:06.595Z,99.90
2022-09-14T02:05:37.058Z,99.90
2022-09-14T02:08:04.297Z,99.90
2022-09-14T02:10:31.733Z,99.90
2022-09-14T02:12:58.684Z,99.90
2022-09-14T02:15:28.234Z,99.90
2022-09-14T02:17:55.392Z,99.90
2022-09-14T02:20:45.932Z,99.90
2022-09-14T02:23:13.225Z,99.90
2022-09-14T02:25:43.338Z,99.90
2022-09-14T02:28:10.156Z,99.90
2022-09-14T02:30:52.457Z,99.90
2022-09-14T02:33:35.385Z,99.90
2022-09-14T02:36:10.760Z,99.90
2022-09-14T02:38:59.465Z,99.90
2022-09-14T02:42:04.614Z,99.90
2022-09-14T02:44:39.911Z,99.90
2022-09-14T02:47:26.157Z,99.90
2022-09-14T02:50:20.134Z,99.90
2022-09-14T02:53:01.487Z,99.90
2022-09-14T02:55:34.898Z,99.90
2022-09-14T02:58:11.452Z,99.90
2022-09-14T03:00:41.717Z,99.90
2022-09-14T03:03:11.670Z,99.90
2022-09-14T03:05:38.714Z,99.90
2022-09-14T03:08:06.400Z,99.90
2022-09-14T03:10:33.847Z,99.90
2022-09-14T03:13:00.976Z,99.90
2022-09-14T03:15:28.413Z,99.90
2022-09-14T03:17:55.575Z,99.90
2022-09-14T03:20:25.275Z,99.90
2022-09-14T03:22:52.499Z,99.90
2022-09-14T03:25:20.167Z,99.90
2022-09-14T03:27:51.495Z,99.90
2022-09-14T03:30:19.474Z,99.90
2022-09-14T03:32:46.728Z,99.90
2022-09-14T03:35:14.569Z,99.90
2022-09-14T03:37:42.879Z,99.90
2022-09-14T03:40:11.698Z,99.90
2022-09-14T03:42:46.240Z,99.90
2022-09-14T03:45:14.402Z,99.90
2022-09-14T03:47:42.022Z,99.90
2022-09-14T03:50:11.279Z,99.90
2022-09-14T03:52:38.247Z,99.90
2022-09-14T03:55:06.976Z,99.90
2022-09-14T03:57:33.798Z,99.90
2022-09-14T04:00:00.552Z,99.90
2022-09-14T04:02:29.351Z,99.90
2022-09-14T04:04:56.302Z,99.90
2022-09-14T04:07:23.081Z,99.90
2022-09-14T04:09:50.062Z,99.90
2022-09-14T04:12:16.810Z,99.90
2022-09-14T04:14:43.581Z,99.90
2022-09-14T04:17:10.417Z,99.90
2022-09-14T04:19:41.584Z,99.90
2022-09-14T04:22:09.020Z,99.90
2022-09-14T04:24:36.075Z,99.90
2022-09-14T04:27:02.973Z,99.90
2022-09-14T04:29:30.725Z,99.90
2022-09-14T04:31:58.091Z,99.90
2022-09-14T04:34:25.624Z,99.90
2022-09-14T04:36:52.472Z,99.90
2022-09-14T04:39:19.645Z,99.90
2022-09-14T04:41:46.476Z,99.90
2022-09-14T04:44:13.340Z,99.90
2022-09-14T04:46:46.278Z,99.90
2022-09-14T04:49:15.293Z,99.90
2022-09-14T04:51:42.241Z,99.90
2022-09-14T04:54:13.733Z,99.90
2022-09-14T04:56:40.998Z,99.90
2022-09-14T04:59:08.118Z,99.90
2022-09-14T05:01:43.588Z,99.90
2022-09-14T05:04:11.615Z,99.90
2022-09-14T05:06:40.658Z,99.90
2022-09-14T05:09:13.503Z,99.90
2022-09-14T05:11:41.183Z,99.90
2022-09-14T05:14:09.674Z,99.90
2022-09-14T05:16:38.496Z,99.90
2022-09-14T05:19:08.122Z,99.90
2022-09-14T05:21:37.434Z,99.90
2022-09-14T05:24:14.996Z,99.90
2022-09-14T05:26:43.444Z,99.90
2022-09-14T05:29:15.384Z,99.90
2022-09-14T05:31:42.564Z,99.90
2022-09-14T05:34:10.653Z,99.90
2022-09-14T05:36:38.826Z,99.90
2022-09-14T05:39:07.262Z,99.90
2022-09-14T05:41:34.018Z,99.90
2022-09-14T05:44:00.877Z,99.90
2022-09-14T05:46:27.911Z,99.90
2022-09-14T05:48:54.737Z,99.90
2022-09-14T05:51:25.154Z,99.90
2022-09-14T05:53:53.803Z,99.90
2022-09-14T05:56:22.163Z,99.90
2022-09-14T05:58:49.616Z,99.90
2022-09-14T06:01:19.772Z,99.90
2022-09-14T06:03:48.267Z,99.90
2022-09-14T06:06:18.076Z,99.90
2022-09-14T06:08:45.545Z,99.90
2022-09-14T06:11:16.369Z,99.90
2022-09-14T06:13:43.909Z,99.90
2022-09-14T06:16:21.029Z,99.90
2022-09-14T06:18:48.743Z,99.90
2022-09-14T06:21:19.271Z,99.90
2022-09-14T06:23:47.121Z,99.90
2022-09-14T06:26:18.380Z,99.90
2022-09-14T06:28:45.141Z,99.90
2022-09-14T06:31:13.714Z,99.90
2022-09-14T06:33:47.637Z,99.90
2022-09-14T06:36:17.942Z,99.90
2022-09-14T06:38:44.709Z,99.90
2022-09-14T06:41:14.288Z,99.90
2022-09-14T06:43:42.351Z,99.90
2022-09-14T06:46:14.746Z,99.90
2022-09-14T06:49:31.367Z,99.90
2022-09-14T06:52:02.437Z,99.90
2022-09-14T06:54:29.423Z,99.90
2022-09-14T06:56:56.221Z,99.90
2022-09-14T06:59:22.975Z,99.90
2022-09-14T07:01:49.866Z,99.90
2022-09-14T07:04:17.017Z,99.90
2022-09-14T07:06:46.197Z,99.90
2022-09-14T07:09:13.265Z,99.90
2022-09-14T07:11:40.205Z,99.90
2022-09-14T07:14:07.079Z,99.90
2022-09-14T07:16:37.869Z,99.90
2022-09-14T07:19:10.743Z,99.90
2022-09-14T07:21:37.701Z,99.90
2022-09-14T07:24:04.915Z,99.90
2022-09-14T07:26:42.384Z,99.90
2022-09-14T07:29:13.612Z,99.90
2022-09-14T07:31:49.256Z,99.90
2022-09-14T07:34:16.681Z,99.90
2022-09-14T07:36:44.046Z,99.90
2022-09-14T07:39:13.542Z,99.90
2022-09-14T07:41:40.781Z,99.90
2022-09-14T07:44:08.973Z,99.90
2022-09-14T07:46:40.991Z,99.90
2022-09-14T07:49:09.191Z,99.90
2022-09-14T07:51:37.134Z,99.90
2022-09-14T07:54:05.463Z,99.90
2022-09-14T07:56:32.717Z,99.90
2022-09-14T07:59:23.764Z,99.90
2022-09-14T08:01:46.924Z,99.90
2022-09-14T08:04:13.819Z,99.90
2022-09-14T08:06:40.831Z,99.90
2022-09-14T08:09:10.987Z,99.90
2022-09-14T08:11:38.593Z,99.90
2022-09-14T08:14:11.898Z,99.90
2022-09-14T08:16:39.182Z,99.90
2022-09-14T08:19:12.255Z,99.90
2022-09-14T08:21:41.711Z,99.90
2022-09-14T08:24:13.972Z,99.90
2022-09-14T08:26:40.867Z,99.90
2022-09-14T08:29:08.156Z,99.90
2022-09-14T08:31:39.274Z,99.90
2022-09-14T08:34:06.904Z,99.90
2022-09-14T08:36:38.656Z,99.90
2022-09-14T08:39:09.016Z,99.90
2022-09-14T08:41:38.472Z,99.90
2022-09-14T08:44:08.243Z,99.90
2022-09-14T08:46:44.253Z,99.90
2022-09-14T08:49:20.488Z,99.90
2022-09-14T08:51:47.385Z,99.90
2022-09-14T08:54:14.151Z,99.90
2022-09-14T08:56:45.499Z,99.90
2022-09-14T08:59:24.633Z,99.90
2022-09-14T09:02:28.179Z,99.90
2022-09-14T09:05:14.612Z,99.90
2022-09-14T09:07:54.069Z,99.90
2022-09-14T09:10:21.221Z,99.90
2022-09-14T09:12:57.688Z,99.90
2022-09-14T09:15:52.098Z,99.90
2022-09-14T09:18:37.132Z,99.90
2022-09-14T09:21:15.227Z,99.90
2022-09-14T09:23:42.873Z,99.90
2022-09-14T09:26:09.633Z,99.90
2022-09-14T09:28:46.027Z,99.90
2022-09-14T09:31:14.973Z,99.90
2022-09-14T09:33:42.377Z,99.90
2022-09-14T09:36:13.424Z,99.90
2022-09-14T09:38:40.440Z,99.90
2022-09-14T09:41:19.183Z,99.90
2022-09-14T09:44:09.405Z,99.90
2022-09-14T09:46:48.675Z,99.90
2022-09-14T09:49:31.045Z,99.90
2022-09-14T09:52:08.888Z,99.90
2022-09-14T09:54:37.840Z,99.90
2022-09-14T09:57:18.260Z,99.90
2022-09-14T09:59:46.725Z,99.90
2022-09-14T10:02:31.276Z,99.90
2022-09-14T10:05:01.194Z,99.90
2022-09-14T10:07:30.164Z,99.90
2022-09-14T10:10:12.661Z,99.90
2022-09-14T10:12:45.543Z,99.90
2022-09-14T10:15:28.736Z,99.90
2022-09-14T10:18:12.418Z,99.90
2022-09-14T10:20:52.904Z,99.90
2022-09-14T10:23:19.757Z,99.90
2022-09-14T10:25:48.421Z,99.90
2022-09-14T10:28:26.991Z,99.90
2022-09-14T10:31:02.985Z,99.90
2022-09-14T10:33:30.304Z,99.90
2022-09-14T10:36:01.547Z,99.90
2022-09-14T10:38:52.877Z,99.90
2022-09-14T10:41:22.622Z,99.90
2022-09-14T10:44:27.848Z,99.90
2022-09-14T10:47:34.027Z,99.90
2022-09-14T10:50:28.360Z,99.90
2022-09-14T10:53:10.253Z,99.90
2022-09-14T10:55:43.853Z,99.90
2022-09-14T10:58:31.597Z,99.90
2022-09-14T11:01:04.465Z,99.90
2022-09-14T11:04:05.353Z,99.90
2022-09-14T11:06:38.187Z,99.90
2022-09-14T11:09:18.972Z,99.90
2022-09-14T11:12:00.095Z,99.90
2022-09-14T11:14:52.739Z,99.90
2022-09-14T11:17:42.363Z,99.90
2022-09-14T11:20:15.605Z,99.90
2022-09-14T11:23:02.560Z,99.90
2022-09-14T11:25:43.075Z,99.90
2022-09-14T11:28:25.376Z,99.90
2022-09-14T11:31:01.834Z,99.90
2022-09-14T11:33:58.805Z,99.90
2022-09-14T11:36:30.474Z,99.90
2022-09-14T11:39:07.217Z,99.90
2022-09-14T11:41:41.518Z,99.90
2022-09-14T11:44:26.634Z,99.40
2022-09-14T11:47:09.688Z,98.60
2022-09-14T11:50:00.990Z,98.40
2022-09-14T11:52:30.600Z,98.40
2022-09-14T11:54:58.670Z,99.80
2022-09-14T11:57:28.759Z,98.40
2022-09-14T11:59:57.809Z,98.10
2022-09-14T12:02:30.413Z,97.10
2022-09-14T12:05:17.664Z,97.00
2022-09-14T12:07:47.107Z,98.40
2022-09-14T12:10:13.835Z,98.00
2022-09-14T12:12:57.356Z,98.20
2022-09-14T12:15:27.094Z,96.70
2022-09-14T12:18:06.043Z,96.80
2022-09-14T12:20:41.932Z,97.80
2022-09-14T12:23:27.085Z,96.50
2022-09-14T12:26:04.822Z,97.60
2022-09-14T12:28:48.712Z,96.90
2022-09-14T12:31:47.434Z,96.60
2022-09-14T12:34:33.142Z,97.10
2022-09-14T12:37:21.743Z,95.80
2022-09-14T12:40:25.903Z,94.90
2022-09-14T12:42:52.644Z,95.10
2022-09-14T12:46:00.881Z,94.80
2022-09-14T12:48:45.940Z,95.30
2022-09-14T12:51:33.981Z,94.40
2022-09-14T12:54:00.792Z,95.50
2022-09-14T12:56:49.253Z,95.50
2022-09-14T12:59:27.319Z,93.70
2022-09-14T13:02:17.255Z,94.10
2022-09-14T13:04:45.780Z,94.70
2022-09-14T13:07:17.967Z,94.00
2022-09-14T13:09:51.420Z,93.70
2022-09-14T13:12:27.804Z,96.70
2022-09-14T13:15:00.479Z,95.20
2022-09-14T13:17:27.194Z,96.00
2022-09-14T13:19:58.941Z,96.50
2022-09-14T13:22:29.423Z,94.90
2022-09-14T13:24:58.954Z,94.80
2022-09-14T13:27:34.828Z,95.40
2022-09-14T13:30:20.431Z,96.10
2022-09-14T13:32:51.391Z,94.90
2022-09-14T13:35:28.824Z,94.40
2022-09-14T13:37:58.174Z,95.30
2022-09-14T13:40:30.704Z,93.70
2022-09-14T13:42:59.288Z,94.40
2022-09-14T13:45:26.457Z,93.80
2022-09-14T13:47:54.303Z,93.50
2022-09-14T13:50:25.322Z,93.80
2022-09-14T13:53:08.318Z,93.00
2022-09-14T13:55:35.003Z,93.40
2022-09-14T13:58:14.715Z,94.90
2022-09-14T14:01:03.982Z,93.70
2022-09-14T14:03:41.568Z,92.00
2022-09-14T14:06:26.696Z,94.40
2022-09-14T14:09:06.452Z,92.80
2022-09-14T14:11:37.820Z,93.60
2022-09-14T14:14:11.883Z,91.80
2022-09-14T14:16:38.748Z,94.30
2022-09-14T14:19:05.555Z,93.20
2022-09-14T14:21:33.753Z,95.10
2022-09-14T14:24:27.873Z,93.40
2022-09-14T14:26:57.252Z,92.20
2022-09-14T14:29:25.716Z,92.70
2022-09-14T14:31:55.810Z,93.40
2022-09-14T14:34:29.608Z,92.50
2022-09-14T14:36:56.580Z,91.40
2022-09-14T14:39:25.465Z,92.50
2022-09-14T14:41:52.678Z,92.50
2022-09-14T14:44:25.344Z,94.50
2022-09-14T14:46:52.130Z,94.00
2022-09-14T14:49:20.703Z,95.00
2022-09-14T14:51:48.273Z,95.20
2022-09-14T14:54:17.870Z,95.40
2022-09-14T14:56:46.637Z,95.80
2022-09-14T14:59:19.485Z,97.80
2022-09-14T15:01:50.615Z,95.30
2022-09-14T15:04:17.658Z,95.40
2022-09-14T15:06:46.269Z,94.80
2022-09-14T15:09:27.763Z,96.90
2022-09-14T15:11:54.829Z,93.90
2022-09-14T15:14:26.700Z,94.00
2022-09-14T15:16:57.934Z,94.30
2022-09-14T15:19:25.806Z,95.00
2022-09-14T15:21:55.210Z,94.50
2022-09-14T15:24:24.130Z,95.40
2022-09-14T15:26:50.888Z,97.50
2022-09-14T15:29:19.965Z,96.00
2022-09-14T15:31:46.868Z,97.80
2022-09-14T15:34:13.625Z,99.90
2022-09-14T15:36:52.283Z,99.90
2022-09-14T15:39:26.296Z,98.50
2022-09-14T15:41:53.676Z,98.70
2022-09-14T15:44:20.437Z,99.90
2022-09-14T15:46:47.954Z,99.90
2022-09-14T15:49:20.468Z,99.90
2022-09-14T15:51:50.051Z,99.90
2022-09-14T15:54:23.121Z,99.90
2022-09-14T15:56:51.926Z,99.90
2022-09-14T15:59:19.941Z,99.90
2022-09-14T16:01:46.929Z,99.90
2022-09-14T16:04:14.094Z,99.90
2022-09-14T16:06:41.369Z,99.90
2022-09-14T16:09:10.224Z,99.90
2022-09-14T16:11:37.941Z,99.90
2022-09-14T16:14:06.105Z,99.90
2022-09-14T16:16:34.631Z,99.90
2022-09-14T16:19:13.407Z,99.90
2022-09-14T16:21:41.577Z,99.90
2022-09-14T16:24:14.793Z,99.90
2022-09-14T16:26:42.456Z,99.90
2022-09-14T16:29:11.843Z,99.90
2022-09-14T16:31:40.379Z,99.90
2022-09-14T16:34:17.204Z,99.90
2022-09-14T16:36:44.534Z,99.90
2022-09-14T16:39:13.791Z,99.90
2022-09-14T16:41:42.224Z,99.90
2022-09-14T16:44:13.580Z,99.90
2022-09-14T16:46:40.603Z,99.90
2022-09-14T16:49:07.437Z,99.90
2022-09-14T16:51:34.324Z,99.90
2022-09-14T16:54:01.558Z,99.90
2022-09-14T16:56:35.043Z,99.90
2022-09-14T16:59:02.616Z,99.90
2022-09-14T17:01:31.971Z,99.90
2022-09-14T17:04:09.909Z,99.90
2022-09-14T17:06:38.722Z,99.90
2022-09-14T17:09:10.012Z,99.90
2022-09-14T17:11:38.335Z,99.90
2022-09-14T17:14:06.122Z,99.90
2022-09-14T17:16:33.016Z,99.90
2022-09-14T17:19:02.692Z,99.90
2022-09-14T17:21:38.227Z,99.90
2022-09-14T17:24:06.496Z,99.90
2022-09-14T17:26:34.241Z,99.90
2022-09-14T17:29:02.072Z,99.90
2022-09-14T17:31:34.764Z,99.90
2022-09-14T17:34:03.310Z,99.90
2022-09-14T17:36:30.807Z,99.90
2022-09-14T17:38:59.781Z,99.90
2022-09-14T17:41:28.167Z,99.90
2022-09-14T17:44:00.461Z,99.90
2022-09-14T17:46:27.830Z,99.90
2022-09-14T17:48:56.467Z,99.90
2022-09-14T17:51:26.093Z,99.90
2022-09-14T17:53:55.560Z,99.90
2022-09-14T17:56:25.074Z,99.90
2022-09-14T17:58:59.337Z,99.90
2022-09-14T18:01:26.897Z,99.90
2022-09-14T18:03:57.046Z,99.90
2022-09-14T18:06:26.853Z,99.90
2022-09-14T18:08:55.843Z,99.90
2022-09-14T18:11:23.061Z,99.90
2022-09-14T18:13:50.756Z,99.90
2022-09-14T18:16:19.835Z,99.90
2022-09-14T18:18:47.513Z,99.90
2022-09-14T18:21:15.465Z,99.90
2022-09-14T18:23:42.648Z,99.90
2022-09-14T18:26:09.983Z,99.90
2022-09-14T18:28:37.032Z,99.90
2022-09-14T18:31:06.601Z,99.90
2022-09-14T18:33:33.746Z,99.90
2022-09-14T18:36:00.943Z,99.90
2022-09-14T18:38:28.920Z,99.90
2022-09-14T18:41:02.039Z,99.90
2022-09-14T18:43:28.839Z,99.90
2022-09-14T18:45:55.603Z,99.90
2022-09-14T18:48:22.339Z,99.90
2022-09-14T18:50:49.072Z,99.90
2022-09-14T18:53:16.051Z,99.90
2022-09-14T18:55:43.405Z,99.90
2022-09-14T18:58:10.139Z,99.90
2022-09-14T19:00:37.459Z,99.90
2022-09-14T19:03:04.667Z,99.90
2022-09-14T19:05:31.899Z,99.90
2022-09-14T19:07:58.729Z,99.90
2022-09-14T19:10:26.916Z,99.90
2022-09-14T19:12:53.646Z,99.90
2022-09-14T19:15:20.445Z,99.90
2022-09-14T19:17:47.344Z,99.90
2022-09-14T19:20:14.214Z,99.90
2022-09-14T19:22:40.939Z,99.90
2022-09-14T19:25:08.095Z,99.90
2022-09-14T19:27:34.825Z,99.90
2022-09-14T19:30:02.004Z,99.90
2022-09-14T19:32:36.967Z,99.90
2022-09-14T19:35:04.517Z,99.90
2022-09-14T19:37:32.158Z,99.90
2022-09-14T19:39:58.993Z,99.90
2022-09-14T19:42:26.025Z,99.90
2022-09-14T19:44:52.784Z,99.90
2022-09-14T19:47:19.493Z,99.90
2022-09-14T19:49:46.285Z,99.90
2022-09-14T19:52:13.037Z,99.90
2022-09-14T19:54:39.777Z,99.90
2022-09-14T19:57:06.946Z,99.90
2022-09-14T19:59:33.681Z,99.90
2022-09-14T20:02:00.465Z,99.90
2022-09-14T20:04:27.363Z,99.90
2022-09-14T20:06:56.387Z,99.90
2022-09-14T20:09:24.040Z,99.90
2022-09-14T20:11:52.525Z,99.90
2022-09-14T20:14:22.599Z,99.90
2022-09-14T20:16:53.280Z,99.90
2022-09-14T20:19:22.664Z,99.90
2022-09-14T20:21:51.170Z,99.90
2022-09-14T20:24:25.728Z,99.90
2022-09-14T20:26:59.403Z,99.90
2022-09-14T20:29:30.127Z,99.90
2022-09-14T20:31:58.091Z,99.90
2022-09-14T20:34:25.365Z,99.90
2022-09-14T20:36:53.378Z,99.90
2022-09-14T20:39:22.246Z,99.90
2022-09-14T20:41:49.477Z,99.90
2022-09-14T20:44:21.859Z,99.90
2022-09-14T20:46:49.864Z,99.90
2022-09-14T20:49:20.929Z,99.90
2022-09-14T20:51:47.770Z,99.90
2022-09-14T20:54:16.905Z,99.90
2022-09-14T20:56:46.039Z,99.90
2022-09-14T20:59:15.718Z,99.90
2022-09-14T21:01:44.594Z,99.90
2022-09-14T21:04:14.417Z,99.90
2022-09-14T21:06:46.624Z,99.90
2022-09-14T21:09:14.810Z,99.90
2022-09-14T21:11:42.202Z,99.90
2022-09-14T21:14:09.143Z,99.90
2022-09-14T21:16:38.136Z,99.90
2022-09-14T21:19:17.046Z,99.90
2022-09-14T21:21:43.913Z,99.90
2022-09-14T21:24:13.352Z,99.90
2022-09-14T21:26:42.798Z,99.90
2022-09-14T21:29:13.154Z,99.90
2022-09-14T21:31:40.540Z,99.90
2022-09-14T21:34:10.192Z,99.90
2022-09-14T21:36:50.807Z,99.90
2022-09-14T21:39:21.609Z,99.90
2022-09-14T21:41:51.465Z,99.90
2022-09-14T21:44:21.336Z,99.90
2022-09-14T21:46:48.141Z,99.90
2022-09-14T21:49:17.495Z,99.90
2022-09-14T21:51:44.501Z,99.90
2022-09-14T21:54:13.011Z,99.90
2022-09-14T21:56:43.173Z,99.90
2022-09-14T21:59:13.971Z,99.90
2022-09-14T22:01:41.769Z,99.90
2022-09-14T22:04:13.661Z,99.90
2022-09-14T22:06:40.608Z,99.90
2022-09-14T22:09:07.522Z,99.90
2022-09-14T22:11:36.346Z,99.90
2022-09-14T22:14:06.644Z,99.90
2022-09-14T22:16:36.104Z,99.90
2022-09-14T22:19:11.347Z,99.90
2022-09-14T22:21:39.136Z,99.90
2022-09-14T22:24:09.835Z,99.90
2022-09-14T22:26:39.597Z,99.90
2022-09-14T22:29:08.887Z,99.90
2022-09-14T22:31:37.732Z,99.90
2022-09-14T22:34:05.243Z,99.90
2022-09-14T22:36:32.052Z,99.90
2022-09-14T22:39:00.431Z,99.90
2022-09-14T22:41:28.419Z,99.90
2022-09-14T22:43:56.058Z,99.90
2022-09-14T22:46:24.228Z,99.90
2022-09-14T22:48:52.152Z,99.90
2022-09-14T22:51:26.701Z,99.90
2022-09-14T22:53:53.473Z,99.90
2022-09-14T22:56:23.699Z,99.90
2022-09-14T22:58:51.208Z,99.90
2022-09-14T23:01:21.538Z,99.90
2022-09-14T23:03:48.589Z,99.90
2022-09-14T23:06:15.612Z,99.90
2022-09-14T23:08:42.929Z,99.90
2022-09-14T23:11:12.223Z,99.90
2022-09-14T23:13:41.798Z,99.90
2022-09-14T23:16:14.889Z,99.90
2022-09-14T23:18:42.289Z,99.90
2022-09-14T23:21:09.434Z,99.90
2022-09-14T23:23:38.215Z,99.90
2022-09-14T23:26:08.296Z,99.90
2022-09-14T23:28:35.787Z,99.90
2022-09-14T23:31:03.228Z,99.90
2022-09-14T23:33:31.018Z,99.90
2022-09-14T23:35:57.960Z,99.90
2022-09-14T23:38:25.227Z,99.90
2022-09-14T23:40:52.247Z,99.90
2022-09-14T23:43:19.567Z,99.90
2022-09-14T23:45:47.534Z,99.90
2022-09-14T23:48:14.874Z,99.90
2022-09-14T23:50:41.639Z,99.90
2022-09-14T23:53:09.086Z,99.90
2022-09-14T23:55:35.839Z,99.90
2022-09-14T23:58:03.169Z,99.90
